MET'MAP v2.0
soon released !

Expected late october,
this new version will be
more efficient, smarter,
and hosted on a brand new
server x3 powerfull...
...and still free !


Not compatible ?
Try the mobile version !

LOG IN : | Subscribe | Disclaimer | Who is Orbifly ? |
ICAO code :

TAF - EKBI Billund - 17 Feb 2020 18:05 UTC - Data Source NOAA   


- Airport Elevation : 247 ft
- IATA code : BLL
- No reported NOTAMs.


EKBI - Billund

Latest METAR recorded : 2015/08/11 07:50 EKBI 110750Z AUTO 18006KT 130V220 9999NDV NCD 19/13 Q1017
TAF TAF EKBI
Valid from the 17 at 12:00 until the 18 at 12:00 UTC


171107Z 1712/1812 23018KT 9999 BKN025
TEMPO 1712/1717 24022G42KT SHRA SCT020CB
TEMPO 1807/1810 25020G30KT 4000 SHRA SCT012 BKN020CB
TEMPO 1810/1812 SHRA SCT020CB

Source NOAA


MET'MAP, your aeronautical weather chart ! - Copyright ORBIFLY December 2007

Programming & Development : Alexandra Zaïnal
Co-Developer : Marc-Olivier Méhu
Technical & hardware support : Manuel Goepfert
Concept & Financing : Baudouin d'Aumeries